createdAt,value
2018-06-14T00:00:16.878Z,11.73
2018-06-14T00:01:16.911Z,11.67
2018-06-14T00:02:16.856Z,11.63
2018-06-14T00:03:16.849Z,11.61
2018-06-14T00:04:16.904Z,11.7
2018-06-14T00:05:16.831Z,11.68
2018-06-14T00:06:16.828Z,11.61
2018-06-14T00:07:16.818Z,11.61
2018-06-14T00:08:16.805Z,11.63
2018-06-14T00:09:16.801Z,11.63
2018-06-14T00:10:16.796Z,11.6
2018-06-14T00:11:16.525Z,11.63
2018-06-14T00:12:16.772Z,11.63
2018-06-14T00:13:16.508Z,11.67
2018-06-14T00:14:16.756Z,11.63
2018-06-14T00:15:16.748Z,11.66
2018-06-14T00:16:16.747Z,11.53
2018-06-14T00:17:16.733Z,11.57
2018-06-14T00:18:16.471Z,11.64
2018-06-14T00:19:16.716Z,11.63
2018-06-14T00:20:16.709Z,11.68
2018-06-14T00:21:16.704Z,11.66
2018-06-14T00:22:16.435Z,11.63
2018-06-14T00:23:16.690Z,11.66
2018-06-14T00:24:16.682Z,11.63
2018-06-14T00:25:16.411Z,11.7
2018-06-14T00:26:16.403Z,11.66
2018-06-14T00:27:16.652Z,11.63
2018-06-14T00:28:16.639Z,11.68
2018-06-14T00:29:16.633Z,11.78
2018-06-14T00:30:16.626Z,11.7
2018-06-14T00:31:16.359Z,11.71
2018-06-14T00:32:16.357Z,11.68
2018-06-14T00:33:16.347Z,11.68
2018-06-14T00:34:16.638Z,11.73
2018-06-14T00:35:16.331Z,11.7
2018-06-14T00:36:16.319Z,11.68
2018-06-14T00:37:16.570Z,11.67
2018-06-14T00:38:16.563Z,11.71
2018-06-14T00:39:16.295Z,11.66
2018-06-14T00:40:16.741Z,11.66
2018-06-14T00:41:16.539Z,11.73
2018-06-14T00:42:16.276Z,11.66
2018-06-14T00:43:16.266Z,11.68
2018-06-14T00:44:16.259Z,11.68
2018-06-14T00:45:15.991Z,11.73
2018-06-14T00:46:16.250Z,11.71
2018-06-14T00:47:16.490Z,11.68
2018-06-14T00:48:16.489Z,11.78
2018-06-14T00:49:16.475Z,11.7
2018-06-14T00:50:16.206Z,11.66
2018-06-14T00:51:16.461Z,11.67
2018-06-14T00:52:16.218Z,11.67
2018-06-14T00:53:16.439Z,11.59
2018-06-14T00:54:16.177Z,11.66
2018-06-14T00:55:16.425Z,11.7
2018-06-14T00:56:16.417Z,11.64
2018-06-14T00:57:16.416Z,11.68
2018-06-14T00:58:16.403Z,11.67
2018-06-14T00:59:16.399Z,11.73
2018-06-14T01:00:16.396Z,11.67
2018-06-14T01:01:16.124Z,11.76
2018-06-14T01:02:16.373Z,11.73
2018-06-14T01:03:16.360Z,11.63
2018-06-14T01:04:16.096Z,11.7
2018-06-14T01:05:16.345Z,11.68
2018-06-14T01:06:15.824Z,11.68
2018-06-14T01:07:15.816Z,11.66
2018-06-14T01:08:16.330Z,11.7
2018-06-14T01:09:16.315Z,11.63
2018-06-14T01:10:16.310Z,11.75
2018-06-14T01:11:16.291Z,11.71
2018-06-14T01:12:16.289Z,11.66
2018-06-14T01:13:16.287Z,11.67
2018-06-14T01:14:16.273Z,11.68
2018-06-14T01:15:16.271Z,11.63
2018-06-14T01:16:15.998Z,11.73
2018-06-14T01:17:16.248Z,11.71
2018-06-14T01:18:15.987Z,11.75
2018-06-14T01:19:16.235Z,11.71
2018-06-14T01:20:15.971Z,11.81
2018-06-14T01:21:16.219Z,11.68
2018-06-14T01:22:15.697Z,11.67
2018-06-14T01:23:16.205Z,11.66
2018-06-14T01:24:15.936Z,11.61
2018-06-14T01:25:16.203Z,11.71
2018-06-14T01:26:15.924Z,11.7
2018-06-14T01:27:16.177Z,11.67
2018-06-14T01:28:16.174Z,11.67
2018-06-14T01:29:16.159Z,11.61
2018-06-14T01:30:15.891Z,11.66
2018-06-14T01:31:16.148Z,11.7
2018-06-14T01:32:15.873Z,11.66
2018-06-14T01:33:15.861Z,11.75
2018-06-14T01:34:16.112Z,11.71
2018-06-14T01:35:16.103Z,11.7
2018-06-14T01:36:16.099Z,11.64
2018-06-14T01:37:15.832Z,11.68
2018-06-14T01:38:16.081Z,11.7
2018-06-14T01:39:16.075Z,11.64
2018-06-14T01:40:16.073Z,11.68
2018-06-14T01:41:16.054Z,11.59
2018-06-14T01:42:16.048Z,11.76
2018-06-14T01:43:16.043Z,11.64
2018-06-14T01:44:16.032Z,11.61
2018-06-14T01:45:16.024Z,11.61
2018-06-14T01:46:15.761Z,11.68
2018-06-14T01:47:16.012Z,11.59
2018-06-14T01:48:15.744Z,11.66
2018-06-14T01:49:15.736Z,11.73
2018-06-14T01:50:15.727Z,11.67
2018-06-14T01:51:15.978Z,11.67
2018-06-14T01:52:15.973Z,11.68
2018-06-14T01:53:15.705Z,11.67
2018-06-14T01:54:15.698Z,11.7
2018-06-14T01:55:15.948Z,11.7
2018-06-14T01:56:15.423Z,11.73
2018-06-14T01:57:15.677Z,11.67
2018-06-14T01:58:15.923Z,11.61
2018-06-14T01:59:15.659Z,11.63
2018-06-14T02:00:15.905Z,11.66
2018-06-14T02:01:15.642Z,11.57
2018-06-14T02:02:15.640Z,11.68
2018-06-14T02:03:15.882Z,11.64
2018-06-14T02:04:15.873Z,11.63
2018-06-14T02:05:15.350Z,11.67
2018-06-14T02:06:15.861Z,11.61
2018-06-14T02:07:15.850Z,11.67
2018-06-14T02:08:15.843Z,11.67
2018-06-14T02:09:15.834Z,11.63
2018-06-14T02:10:15.825Z,11.6
2018-06-14T02:11:15.819Z,11.63
2018-06-14T02:12:15.554Z,11.59
2018-06-14T02:13:15.801Z,11.63
2018-06-14T02:14:15.792Z,11.57
2018-06-14T02:15:15.526Z,11.6
2018-06-14T02:16:15.784Z,11.61
2018-06-14T02:17:15.776Z,11.59
2018-06-14T02:18:15.505Z,11.63
2018-06-14T02:19:15.755Z,11.57
2018-06-14T02:20:15.746Z,11.63
2018-06-14T02:21:15.478Z,11.61
2018-06-14T02:22:15.730Z,11.6
2018-06-14T02:23:15.725Z,11.66
2018-06-14T02:24:15.456Z,11.63
2018-06-14T02:25:15.189Z,11.63
2018-06-14T02:26:15.696Z,11.7
2018-06-14T02:27:15.429Z,11.61
2018-06-14T02:28:15.679Z,11.63
2018-06-14T02:29:15.672Z,11.64
2018-06-14T02:30:15.694Z,11.57
2018-06-14T02:31:15.400Z,11.63
2018-06-14T02:32:15.397Z,11.63
2018-06-14T02:33:15.644Z,11.57
2018-06-14T02:34:15.632Z,11.63
2018-06-14T02:35:15.632Z,11.61
2018-06-14T02:36:15.628Z,11.64
2018-06-14T02:37:15.613Z,11.53
2018-06-14T02:38:15.090Z,11.67
2018-06-14T02:39:15.595Z,11.67
2018-06-14T02:40:15.596Z,11.67
2018-06-14T02:41:15.582Z,11.66
2018-06-14T02:42:15.570Z,11.59
2018-06-14T02:43:15.302Z,11.64
2018-06-14T02:44:15.565Z,11.64
2018-06-14T02:45:15.291Z,11.61
2018-06-14T02:46:15.024Z,11.63
2018-06-14T02:47:15.529Z,11.66
2018-06-14T02:48:15.520Z,11.63
2018-06-14T02:49:15.258Z,11.6
2018-06-14T02:50:15.246Z,11.66
2018-06-14T02:51:15.238Z,11.67
2018-06-14T02:52:15.492Z,11.64
2018-06-14T02:53:15.490Z,11.64
2018-06-14T02:54:15.215Z,11.66
2018-06-14T02:55:15.212Z,11.68
2018-06-14T02:56:15.462Z,11.63
2018-06-14T02:57:15.196Z,11.61
2018-06-14T02:58:15.185Z,11.63
2018-06-14T02:59:15.194Z,11.6
2018-06-14T03:00:15.424Z,11.6
2018-06-14T03:01:15.156Z,11.59
2018-06-14T03:02:15.415Z,11.6
2018-06-14T03:03:15.401Z,11.63
2018-06-14T03:04:15.442Z,11.63
2018-06-14T03:05:15.386Z,11.61
2018-06-14T03:06:15.380Z,11.6
2018-06-14T03:07:15.386Z,11.6
2018-06-14T03:08:15.364Z,11.61
2018-06-14T03:09:15.361Z,11.6
2018-06-14T03:10:15.092Z,11.59
2018-06-14T03:11:15.349Z,11.66
2018-06-14T03:12:15.076Z,11.61
2018-06-14T03:13:15.062Z,11.61
2018-06-14T03:14:15.310Z,11.61
2018-06-14T03:15:15.049Z,11.66
2018-06-14T03:16:15.295Z,11.63
2018-06-14T03:17:15.292Z,11.52
2018-06-14T03:18:15.277Z,11.59
2018-06-14T03:19:15.278Z,11.61
2018-06-14T03:20:15.265Z,11.64
2018-06-14T03:21:15.267Z,11.59
2018-06-14T03:22:15.253Z,11.52
2018-06-14T03:23:15.244Z,11.59
2018-06-14T03:24:14.714Z,11.6
2018-06-14T03:25:15.222Z,11.63
2018-06-14T03:26:15.213Z,11.66
2018-06-14T03:27:15.203Z,11.59
2018-06-14T03:28:15.199Z,11.68
2018-06-14T03:29:15.187Z,11.59
2018-06-14T03:30:14.925Z,11.61
2018-06-14T03:31:15.184Z,11.7
2018-06-14T03:32:14.904Z,11.61
2018-06-14T03:33:14.904Z,11.63
2018-06-14T03:34:14.893Z,11.57
2018-06-14T03:35:15.143Z,11.6
2018-06-14T03:36:15.134Z,11.6
2018-06-14T03:37:14.867Z,11.6
2018-06-14T03:38:15.114Z,11.7
2018-06-14T03:39:14.846Z,11.61
2018-06-14T03:40:15.099Z,11.59
2018-06-14T03:41:15.090Z,11.61
2018-06-14T03:42:15.081Z,11.66
2018-06-14T03:43:15.076Z,11.63
2018-06-14T03:44:14.809Z,11.68
2018-06-14T03:45:14.811Z,11.61
2018-06-14T03:46:15.052Z,11.61
2018-06-14T03:47:15.050Z,11.64
2018-06-14T03:48:14.780Z,11.63
2018-06-14T03:49:14.770Z,11.66
2018-06-14T03:50:15.023Z,11.64
2018-06-14T03:51:14.755Z,11.71
2018-06-14T03:52:15.004Z,11.76
2018-06-14T03:53:14.737Z,11.7
2018-06-14T03:54:14.728Z,11.68
2018-06-14T03:55:14.982Z,11.75
2018-06-14T03:56:14.971Z,11.66
2018-06-14T03:57:14.447Z,11.61
2018-06-14T03:58:14.694Z,11.68
2018-06-14T03:59:14.946Z,11.66
2018-06-14T04:00:14.683Z,11.7
2018-06-14T04:01:14.980Z,11.68
2018-06-14T04:02:14.673Z,11.73
2018-06-14T04:03:14.658Z,11.66
2018-06-14T04:04:14.909Z,11.66
2018-06-14T04:05:14.903Z,11.64
2018-06-14T04:06:14.640Z,11.75
2018-06-14T04:07:14.884Z,11.76
2018-06-14T04:08:14.623Z,11.75
2018-06-14T04:09:14.864Z,11.78
2018-06-14T04:10:14.724Z,11.79
2018-06-14T04:11:14.592Z,11.84
2018-06-14T04:12:14.848Z,11.88
2018-06-14T04:13:14.833Z,11.94
2018-06-14T04:14:14.828Z,11.86
2018-06-14T04:15:14.563Z,11.91
2018-06-14T04:16:14.553Z,11.91
2018-06-14T04:17:14.800Z,12
2018-06-14T04:18:14.547Z,11.98
2018-06-14T04:19:14.788Z,12
2018-06-14T04:20:14.783Z,12.04
2018-06-14T04:21:14.774Z,11.97
2018-06-14T04:22:14.765Z,12
2018-06-14T04:23:14.500Z,12
2018-06-14T04:24:14.488Z,12.03
2018-06-14T04:25:14.738Z,12.05
2018-06-14T04:26:14.215Z,12.08
2018-06-14T04:27:14.467Z,12.18
2018-06-14T04:28:14.731Z,12.08
2018-06-14T04:29:14.453Z,12.08
2018-06-14T04:30:14.447Z,12.18
2018-06-14T04:31:14.691Z,12.13
2018-06-14T04:32:14.422Z,12.15
2018-06-14T04:33:14.677Z,12.08
2018-06-14T04:34:14.670Z,12.13
2018-06-14T04:35:14.661Z,12.07
2018-06-14T04:36:14.662Z,12.11
2018-06-14T04:37:14.643Z,12.04
2018-06-14T04:38:14.641Z,12.08
2018-06-14T04:39:14.630Z,12.08
2018-06-14T04:40:14.625Z,12.1
2018-06-14T04:41:14.612Z,12.23
2018-06-14T04:42:14.349Z,12.16
2018-06-14T04:43:14.604Z,12.15
2018-06-14T04:44:14.590Z,12.2
2018-06-14T04:45:14.329Z,12.18
2018-06-14T04:46:14.318Z,12.18
2018-06-14T04:47:14.570Z,12.28
2018-06-14T04:48:14.561Z,12.29
2018-06-14T04:49:14.554Z,12.29
2018-06-14T04:50:14.549Z,12.31
2018-06-14T04:51:14.275Z,12.36
2018-06-14T04:52:14.275Z,12.28
2018-06-14T04:53:14.522Z,12.31
2018-06-14T04:54:14.517Z,12.26
2018-06-14T04:55:14.502Z,12.38
2018-06-14T04:56:14.238Z,12.43
2018-06-14T04:57:14.232Z,12.43
2018-06-14T04:58:14.484Z,12.4
2018-06-14T04:59:14.473Z,12.43
2018-06-14T05:00:14.212Z,12.4
2018-06-14T05:01:14.457Z,12.59
2018-06-14T05:02:14.458Z,12.52
2018-06-14T05:03:14.183Z,12.51
2018-06-14T05:04:14.438Z,12.58
2018-06-14T05:05:14.426Z,12.62
2018-06-14T05:06:14.420Z,12.56
2018-06-14T05:07:14.416Z,12.59
2018-06-14T05:08:14.152Z,12.61
2018-06-14T05:09:14.410Z,12.65
2018-06-14T05:10:14.137Z,12.71
2018-06-14T05:11:14.128Z,12.7
2018-06-14T05:12:14.379Z,12.77
2018-06-14T05:13:14.112Z,12.71
2018-06-14T05:14:14.108Z,12.78
2018-06-14T05:15:14.095Z,12.74
2018-06-14T05:16:14.087Z,12.76
2018-06-14T05:17:14.078Z,12.74
2018-06-14T05:18:14.195Z,12.83
2018-06-14T05:19:14.068Z,12.71
2018-06-14T05:20:14.316Z,12.8
2018-06-14T05:21:14.312Z,12.8
2018-06-14T05:22:14.301Z,12.8
2018-06-14T05:23:14.293Z,12.77
2018-06-14T05:24:14.028Z,12.88
2018-06-14T05:25:14.277Z,12.89
2018-06-14T05:26:14.272Z,12.91
2018-06-14T05:27:14.265Z,12.92
2018-06-14T05:28:14.253Z,12.99
2018-06-14T05:29:14.251Z,12.92
2018-06-14T05:30:13.986Z,13.06
2018-06-14T05:31:14.233Z,13.01
2018-06-14T05:32:13.966Z,13.16
2018-06-14T05:33:13.963Z,13.11
2018-06-14T05:34:14.210Z,13.11
2018-06-14T05:35:13.945Z,13.24
2018-06-14T05:36:13.939Z,13.27
2018-06-14T05:37:14.192Z,13.14
2018-06-14T05:38:14.316Z,13.25
2018-06-14T05:39:14.178Z,13.25
2018-06-14T05:40:14.165Z,13.27
2018-06-14T05:41:14.168Z,13.14
2018-06-14T05:42:14.043Z,13.16
2018-06-14T05:43:13.890Z,13.28
2018-06-14T05:44:14.142Z,13.19
2018-06-14T05:45:13.884Z,13.21
2018-06-14T05:46:14.130Z,13.2
2018-06-14T05:47:14.122Z,13.27
2018-06-14T05:48:13.600Z,13.2
2018-06-14T05:49:14.106Z,13.19
2018-06-14T05:50:13.582Z,13.2
2018-06-14T05:51:14.094Z,13.32
2018-06-14T05:52:14.083Z,13.31
2018-06-14T05:53:14.077Z,13.31
2018-06-14T05:54:13.811Z,13.27
2018-06-14T05:55:14.066Z,13.35
2018-06-14T05:56:13.917Z,13.31
2018-06-14T05:57:14.056Z,13.32
2018-06-14T05:58:14.040Z,13.36
2018-06-14T05:59:14.035Z,13.32
2018-06-14T06:00:14.031Z,13.35
2018-06-14T06:01:14.020Z,13.4
2018-06-14T06:02:14.021Z,13.5
2018-06-14T06:03:14.010Z,13.42
2018-06-14T06:04:13.998Z,13.45
2018-06-14T06:05:13.734Z,13.53
2018-06-14T06:06:13.986Z,13.5
2018-06-14T06:07:13.981Z,13.55
2018-06-14T06:08:13.712Z,13.5
2018-06-14T06:09:13.967Z,13.54
2018-06-14T06:10:13.961Z,13.54
2018-06-14T06:11:13.959Z,13.53
2018-06-14T06:12:14.015Z,13.5
2018-06-14T06:13:13.683Z,13.58
2018-06-14T06:14:13.676Z,13.47
2018-06-14T06:15:13.923Z,13.5
2018-06-14T06:16:13.665Z,13.5
2018-06-14T06:17:13.911Z,13.5
2018-06-14T06:18:13.911Z,13.5
2018-06-14T06:19:13.896Z,13.53
2018-06-14T06:20:13.893Z,13.57
2018-06-14T06:21:13.884Z,13.65
2018-06-14T06:22:13.875Z,13.63
2018-06-14T06:23:13.614Z,13.66
2018-06-14T06:24:13.866Z,13.81
2018-06-14T06:25:13.601Z,13.84
2018-06-14T06:26:14.136Z,13.91
2018-06-14T06:27:13.588Z,13.91
2018-06-14T06:28:13.578Z,14.08
2018-06-14T06:29:13.832Z,14.06
2018-06-14T06:30:13.824Z,13.95
2018-06-14T06:31:13.820Z,14.03
2018-06-14T06:32:13.809Z,14.08
2018-06-14T06:33:13.734Z,14.13
2018-06-14T06:34:13.542Z,14.06
2018-06-14T06:35:13.532Z,14.2
2018-06-14T06:36:13.538Z,14.11
2018-06-14T06:37:13.521Z,14.09
2018-06-14T06:38:13.775Z,14.27
2018-06-14T06:39:13.767Z,14.26
2018-06-14T06:40:13.501Z,14.24
2018-06-14T06:41:13.757Z,14.26
2018-06-14T06:42:13.751Z,14.23
2018-06-14T06:43:13.739Z,14.24
2018-06-14T06:44:13.730Z,14.12
2018-06-14T06:45:13.545Z,14.21
2018-06-14T06:46:13.469Z,14.28
2018-06-14T06:47:13.460Z,14.26
2018-06-14T06:48:13.451Z,14.28
2018-06-14T06:49:13.450Z,14.3
2018-06-14T06:50:13.441Z,14.27
2018-06-14T06:51:13.432Z,14.36
2018-06-14T06:52:13.429Z,14.31
2018-06-14T06:53:13.774Z,14.44
2018-06-14T06:54:13.674Z,14.28
2018-06-14T06:55:13.667Z,14.45
2018-06-14T06:56:13.661Z,14.45
2018-06-14T06:57:13.653Z,14.52
2018-06-14T06:58:13.393Z,14.45
2018-06-14T06:59:13.383Z,14.49
2018-06-14T07:00:13.377Z,14.6
2018-06-14T07:01:13.116Z,14.46
2018-06-14T07:02:13.363Z,14.56
2018-06-14T07:03:13.365Z,14.67
2018-06-14T07:04:13.616Z,14.74
2018-06-14T07:05:13.603Z,14.71
2018-06-14T07:06:13.628Z,14.85
2018-06-14T07:07:13.607Z,14.87
2018-06-14T07:08:13.588Z,15.02
2018-06-14T07:09:13.326Z,14.94
2018-06-14T07:10:13.584Z,15.01
2018-06-14T07:11:13.317Z,14.85
2018-06-14T07:12:13.576Z,14.9
2018-06-14T07:13:13.559Z,14.9
2018-06-14T07:14:13.295Z,14.98
2018-06-14T07:15:13.290Z,15.05
2018-06-14T07:16:13.289Z,15.05
2018-06-14T07:17:13.540Z,14.98
2018-06-14T07:18:13.532Z,15.01
2018-06-14T07:19:13.266Z,15.05
2018-06-14T07:20:13.518Z,15.05
2018-06-14T07:21:13.259Z,15.07
2018-06-14T07:22:13.257Z,15.04
2018-06-14T07:23:13.509Z,15.01
2018-06-14T07:24:13.243Z,15.05
2018-06-14T07:25:13.490Z,15.02
2018-06-14T07:26:12.973Z,15.02
2018-06-14T07:27:13.487Z,15.05
2018-06-14T07:28:12.965Z,15.18
2018-06-14T07:29:13.471Z,15.07
2018-06-14T07:30:13.467Z,15.2
2018-06-14T07:31:13.460Z,15.2
2018-06-14T07:32:13.457Z,15.15
2018-06-14T07:33:13.456Z,15.18
2018-06-14T07:34:13.444Z,15.2
2018-06-14T07:35:13.179Z,15.25
2018-06-14T07:36:13.177Z,15.31
2018-06-14T07:37:13.171Z,15.27
2018-06-14T07:38:13.165Z,15.3
2018-06-14T07:39:13.160Z,15.41
2018-06-14T07:40:13.416Z,15.38
2018-06-14T07:41:13.150Z,15.38
2018-06-14T07:42:13.409Z,15.37
2018-06-14T07:43:13.443Z,15.31
2018-06-14T07:44:13.136Z,15.18
2018-06-14T07:45:13.130Z,15.31
2018-06-14T07:46:13.376Z,15.33
2018-06-14T07:47:13.375Z,15.37
2018-06-14T07:48:13.371Z,15.43
2018-06-14T07:49:13.367Z,15.45
2018-06-14T07:50:13.422Z,15.49
2018-06-14T07:51:13.356Z,15.59
2018-06-14T07:52:13.351Z,15.65
2018-06-14T07:53:12.831Z,15.7
2018-06-14T07:54:13.193Z,15.73
2018-06-14T07:55:13.338Z,15.78
2018-06-14T07:56:13.333Z,15.65
2018-06-14T07:57:13.066Z,15.59
2018-06-14T07:58:13.321Z,15.58
2018-06-14T07:59:12.803Z,15.62
2018-06-14T08:00:13.434Z,15.63
2018-06-14T08:01:12.792Z,15.73
2018-06-14T08:02:13.042Z,15.77
2018-06-14T08:03:13.050Z,15.73
2018-06-14T08:04:13.288Z,15.74
2018-06-14T08:05:13.293Z,15.93
2018-06-14T08:06:13.025Z,15.77
2018-06-14T08:07:13.277Z,15.92
2018-06-14T08:08:13.272Z,15.96
2018-06-14T08:09:13.009Z,15.81
2018-06-14T08:10:13.261Z,15.83
2018-06-14T08:11:13.255Z,15.91
2018-06-14T08:12:13.008Z,15.91
2018-06-14T08:13:12.990Z,15.96
2018-06-14T08:14:12.987Z,16
2018-06-14T08:15:12.983Z,15.93
2018-06-14T08:16:13.236Z,16.04
2018-06-14T08:17:13.237Z,16.1
2018-06-14T08:18:12.969Z,16.16
2018-06-14T08:19:13.224Z,16.08
2018-06-14T08:20:12.963Z,16.13
2018-06-14T08:21:12.953Z,16.17
2018-06-14T08:22:13.207Z,16.29
2018-06-14T08:23:13.204Z,16.22
2018-06-14T08:24:13.199Z,16.22
2018-06-14T08:25:13.195Z,16.27
2018-06-14T08:26:13.192Z,16.33
2018-06-14T08:27:13.183Z,16.34
2018-06-14T08:28:13.177Z,16.39
2018-06-14T08:29:13.176Z,16.27
2018-06-14T08:30:13.174Z,16.25
2018-06-14T08:31:12.918Z,16.26
2018-06-14T08:32:13.165Z,16.32
2018-06-14T08:33:13.157Z,16.32
2018-06-14T08:34:12.896Z,16.29
2018-06-14T08:35:13.149Z,16.3
2018-06-14T08:36:13.152Z,16.37
2018-06-14T08:37:13.145Z,16.34
2018-06-14T08:38:13.359Z,16.32
2018-06-14T08:39:13.134Z,16.39
2018-06-14T08:40:12.872Z,16.49
2018-06-14T08:41:13.125Z,16.48
2018-06-14T08:42:12.606Z,16.52
2018-06-14T08:43:13.117Z,16.49
2018-06-14T08:44:13.115Z,16.42
2018-06-14T08:45:12.853Z,16.47
2018-06-14T08:46:12.848Z,16.39
2018-06-14T08:47:12.586Z,16.51
2018-06-14T08:48:13.092Z,16.59
2018-06-14T08:49:12.835Z,16.47
2018-06-14T08:50:12.832Z,16.62
2018-06-14T08:51:13.083Z,16.54
2018-06-14T08:52:13.078Z,16.57
2018-06-14T08:53:12.821Z,16.55
2018-06-14T08:54:12.556Z,16.59
2018-06-14T08:55:13.067Z,16.48
2018-06-14T08:56:13.062Z,16.49
2018-06-14T08:57:13.059Z,16.52
2018-06-14T08:58:13.056Z,16.59
2018-06-14T08:59:13.051Z,16.62
2018-06-14T09:00:13.049Z,16.7
2018-06-14T09:01:12.785Z,16.7
2018-06-14T09:02:13.038Z,16.67
2018-06-14T09:03:13.034Z,16.72
2018-06-14T09:04:13.032Z,16.7
2018-06-14T09:05:12.772Z,16.74
2018-06-14T09:06:13.122Z,16.7
2018-06-14T09:07:13.024Z,16.72
2018-06-14T09:08:13.024Z,16.73
2018-06-14T09:09:13.018Z,16.82
2018-06-14T09:10:13.009Z,16.87
2018-06-14T09:11:13.003Z,16.73
2018-06-14T09:12:13.003Z,16.77
2018-06-14T09:13:12.740Z,16.81
2018-06-14T09:14:13.189Z,16.74
2018-06-14T09:15:12.733Z,16.72
2018-06-14T09:16:12.471Z,16.74
2018-06-14T09:17:12.782Z,16.8
2018-06-14T09:18:12.988Z,16.87
2018-06-14T09:19:12.715Z,17.02
2018-06-14T09:20:12.975Z,16.94
2018-06-14T09:21:12.708Z,16.95
2018-06-14T09:22:12.715Z,16.94
2018-06-14T09:23:12.705Z,16.91
2018-06-14T09:24:12.954Z,17.02
2018-06-14T09:25:12.696Z,17.06
2018-06-14T09:26:12.696Z,17.09
2018-06-14T09:27:12.690Z,17.13
2018-06-14T09:28:12.689Z,17.2
2018-06-14T09:29:12.936Z,17.24
2018-06-14T09:30:12.680Z,17.24
2018-06-14T09:31:12.420Z,17.36
2018-06-14T09:32:12.931Z,17.36
2018-06-14T09:33:12.931Z,17.38
2018-06-14T09:34:12.919Z,17.52
2018-06-14T09:35:12.917Z,17.63
2018-06-14T09:36:12.666Z,17.68
2018-06-14T09:37:12.656Z,17.74
2018-06-14T09:38:12.655Z,17.86
2018-06-14T09:39:12.648Z,17.98
2018-06-14T09:40:12.649Z,18.01
2018-06-14T09:41:12.925Z,17.95
2018-06-14T09:42:12.906Z,18.05
2018-06-14T09:43:12.791Z,17.99
2018-06-14T09:44:12.897Z,18.06
2018-06-14T09:45:12.888Z,18.03
2018-06-14T09:46:12.634Z,18.17
2018-06-14T09:47:12.882Z,18.21
2018-06-14T09:48:12.881Z,18.27
2018-06-14T09:49:12.880Z,18.41
2018-06-14T09:50:12.628Z,18.45
2018-06-14T09:51:12.875Z,18.38
2018-06-14T09:52:12.611Z,18.39
2018-06-14T09:53:12.611Z,18.41
2018-06-14T09:54:12.611Z,18.41
2018-06-14T09:55:12.870Z,18.41
2018-06-14T09:56:12.862Z,18.5
2018-06-14T09:57:12.855Z,18.66
2018-06-14T09:58:12.856Z,18.61
2018-06-14T09:59:12.855Z,18.69
2018-06-14T10:00:12.593Z,18.75
2018-06-14T10:01:12.336Z,18.75
2018-06-14T10:02:12.586Z,18.82
2018-06-14T10:03:12.330Z,18.87
2018-06-14T10:04:12.852Z,19
2018-06-14T10:05:12.843Z,18.91
2018-06-14T10:06:13.106Z,18.79
2018-06-14T10:07:12.848Z,18.82
2018-06-14T10:08:12.577Z,18.82
2018-06-14T10:09:12.835Z,18.75
2018-06-14T10:10:12.575Z,18.84
2018-06-14T10:11:12.569Z,18.81
2018-06-14T10:12:12.876Z,18.97
2018-06-14T10:13:12.826Z,19.07
2018-06-14T10:14:12.566Z,19.19
2018-06-14T10:15:12.820Z,19.25
2018-06-14T10:16:12.817Z,19.31
2018-06-14T10:17:12.819Z,19.47
2018-06-14T10:18:12.299Z,19.6
2018-06-14T10:19:12.813Z,19.64
2018-06-14T10:20:12.811Z,19.64
2018-06-14T10:21:12.566Z,19.6
2018-06-14T10:22:12.555Z,19.57
2018-06-14T10:23:12.547Z,19.65
2018-06-14T10:24:12.545Z,19.65
2018-06-14T10:25:12.549Z,19.64
2018-06-14T10:26:12.546Z,19.71
2018-06-14T10:27:12.809Z,19.68
2018-06-14T10:28:12.804Z,19.79
2018-06-14T10:29:12.800Z,19.92
2018-06-14T10:30:12.796Z,19.98
2018-06-14T10:31:12.795Z,20
2018-06-14T10:32:12.806Z,20.04
2018-06-14T10:33:12.798Z,20
2018-06-14T10:34:12.796Z,20.07
2018-06-14T10:35:12.796Z,20.27
2018-06-14T10:36:12.276Z,20.3
2018-06-14T10:37:12.875Z,20.32
2018-06-14T10:38:12.789Z,20.4
2018-06-14T10:39:12.536Z,20.41
2018-06-14T10:40:12.273Z,20.49
2018-06-14T10:41:12.555Z,20.37
2018-06-14T10:42:12.794Z,20.37
2018-06-14T10:43:12.785Z,20.48
2018-06-14T10:44:12.793Z,20.51
2018-06-14T10:45:12.786Z,20.51
2018-06-14T10:46:12.526Z,20.66
2018-06-14T10:47:12.785Z,20.72
2018-06-14T10:48:12.527Z,20.72
2018-06-14T10:49:12.524Z,20.68
2018-06-14T10:50:12.524Z,20.81
2018-06-14T10:51:12.785Z,20.85
2018-06-14T10:52:12.528Z,20.83
2018-06-14T10:53:12.783Z,20.88
2018-06-14T10:54:12.787Z,20.74
2018-06-14T10:55:12.778Z,20.83
2018-06-14T10:56:12.532Z,20.76
2018-06-14T10:57:12.781Z,20.68
2018-06-14T10:58:12.519Z,20.67
2018-06-14T10:59:12.783Z,20.68
2018-06-14T11:00:12.522Z,20.58
2018-06-14T11:01:12.779Z,20.44
2018-06-14T11:02:12.517Z,20.51
2018-06-14T11:03:12.780Z,20.74
2018-06-14T11:04:12.519Z,20.98
2018-06-14T11:05:12.778Z,21.03
2018-06-14T11:06:12.271Z,21.13
2018-06-14T11:07:12.517Z,21.27
2018-06-14T11:08:12.260Z,21.31
2018-06-14T11:09:12.789Z,21
2018-06-14T11:10:12.772Z,20.91
2018-06-14T11:11:12.776Z,20.79
2018-06-14T11:12:12.775Z,20.85
2018-06-14T11:13:12.877Z,20.88
2018-06-14T11:14:12.772Z,20.81
2018-06-14T11:15:12.778Z,20.82
2018-06-14T11:16:12.778Z,20.86
2018-06-14T11:17:12.785Z,20.86
2018-06-14T11:18:12.777Z,20.9
2018-06-14T11:19:12.516Z,20.88
2018-06-14T11:20:12.580Z,20.83
2018-06-14T11:21:12.779Z,20.94
2018-06-14T11:22:12.515Z,20.82
2018-06-14T11:23:12.773Z,20.74
2018-06-14T11:24:12.776Z,20.61
2018-06-14T11:25:12.521Z,20.58
2018-06-14T11:26:12.775Z,20.46
2018-06-14T11:27:12.518Z,20.27
2018-06-14T11:28:12.772Z,20.38
2018-06-14T11:29:12.770Z,20.46
2018-06-14T11:30:12.519Z,20.71
2018-06-14T11:31:12.830Z,20.71
2018-06-14T11:32:12.772Z,20.66
2018-06-14T11:33:12.772Z,20.72
2018-06-14T11:34:12.770Z,20.72
2018-06-14T11:35:12.515Z,20.54
2018-06-14T11:36:12.520Z,20.64
2018-06-14T11:37:12.769Z,20.64
2018-06-14T11:38:12.770Z,20.6
2018-06-14T11:39:12.517Z,20.57
2018-06-14T11:40:12.515Z,20.64
2018-06-14T11:41:12.775Z,20.56
2018-06-14T11:42:12.775Z,20.46
2018-06-14T11:43:12.769Z,20.42
2018-06-14T11:44:12.770Z,20.38
2018-06-14T11:45:12.509Z,20.4
2018-06-14T11:46:12.773Z,20.37
2018-06-14T11:47:12.507Z,20.29
2018-06-14T11:48:12.827Z,20.42
2018-06-14T11:49:12.773Z,20.64
2018-06-14T11:50:12.769Z,20.83
2018-06-14T11:51:12.505Z,21.01
2018-06-14T11:52:12.762Z,21.11
2018-06-14T11:53:12.769Z,21.09
2018-06-14T11:54:12.312Z,21.09
2018-06-14T11:55:12.766Z,21.16
2018-06-14T11:56:12.507Z,21.08
2018-06-14T11:57:12.763Z,20.9
2018-06-14T11:58:12.761Z,20.72
2018-06-14T11:59:12.766Z,20.61
2018-06-14T12:00:12.763Z,20.51
2018-06-14T12:01:12.813Z,20.61
2018-06-14T12:02:12.502Z,20.74
2018-06-14T12:03:12.758Z,20.94
2018-06-14T12:04:12.761Z,21.09
2018-06-14T12:05:12.759Z,21
2018-06-14T12:06:12.760Z,20.96
2018-06-14T12:07:12.249Z,20.76
2018-06-14T12:08:12.504Z,20.72
2018-06-14T12:09:12.552Z,20.61
2018-06-14T12:10:12.505Z,20.56
2018-06-14T12:11:12.503Z,20.61
2018-06-14T12:12:12.760Z,20.57
2018-06-14T12:13:12.767Z,20.44
2018-06-14T12:14:12.500Z,20.57
2018-06-14T12:15:12.938Z,20.42
2018-06-14T12:16:12.762Z,20.35
2018-06-14T12:17:12.759Z,20.26
2018-06-14T12:18:12.761Z,20.27
2018-06-14T12:19:12.506Z,20.3
2018-06-14T12:20:12.755Z,20.37
2018-06-14T12:21:12.760Z,20.48
2018-06-14T12:22:12.761Z,20.32
2018-06-14T12:23:12.755Z,20.26
2018-06-14T12:24:12.761Z,20.44
2018-06-14T12:25:12.770Z,20.38
2018-06-14T12:26:12.498Z,20.46
2018-06-14T12:27:12.497Z,20.35
2018-06-14T12:28:12.236Z,20.4
2018-06-14T12:29:12.500Z,20.29
2018-06-14T12:30:12.500Z,20.18
2018-06-14T12:31:12.749Z,20.18
2018-06-14T12:32:12.750Z,20.05
2018-06-14T12:33:12.493Z,20.04
2018-06-14T12:34:12.498Z,20.05
2018-06-14T12:35:12.754Z,20.02
2018-06-14T12:36:12.750Z,20.04
2018-06-14T12:37:12.490Z,19.97
2018-06-14T12:38:12.751Z,19.89
2018-06-14T12:39:12.748Z,19.98
2018-06-14T12:40:12.490Z,19.65
2018-06-14T12:41:12.749Z,19.5
2018-06-14T12:42:12.488Z,19.63
2018-06-14T12:43:12.491Z,19.7
2018-06-14T12:44:12.806Z,19.71
2018-06-14T12:45:12.486Z,19.87
2018-06-14T12:46:12.743Z,19.9
2018-06-14T12:47:12.742Z,19.98
2018-06-14T12:48:12.745Z,19.93
2018-06-14T12:49:12.737Z,19.98
2018-06-14T12:50:12.742Z,19.86
2018-06-14T12:51:12.890Z,19.85
2018-06-14T12:52:12.737Z,19.85
2018-06-14T12:53:12.735Z,19.86
2018-06-14T12:54:12.476Z,19.86
2018-06-14T12:55:12.737Z,19.86
2018-06-14T12:56:12.735Z,19.82